CheckWX is a tool to help pilots better visualize weather data.  It is not intended as a substitute for an official pre-flight weather briefing.

21:06:41 UTC

KNUW METAR
Whidbey Island NAS / Ault Field Airport
Oak Harbor, Washington, USA
Current

1 hour ago

KNUW 231956Z 14015G22KT 10SM FEW020 SCT035 BKN050 BKN150 09/01 A3013 RMK SLP203 T00890006
Observed
Feb-23 @ 19:56 UTC
Wind
  • 140° at 15 KTS
  • Gusting to 22 KTS
Visibility
10 SM
Flight Rules
VFR
Cloud Levels
  • Few at 2,000' AGL
  • Scattered at 3,500' AGL
  • Broken at 5,000' AGL
  • Broken at 15,000' AGL
Temperature
C / 48°F
Dewpoint
C / 34°F
Humidity
58%
Altimeter
30.13" Hg
Pressure
1020.3 hPa
Previous

2 hours ago

KNUW 231856Z 15011KT 10SM FEW015 SCT025 BKN048 BKN150 07/01 A34014 RMK SLP204 T00720011
Observed
Feb-23 @ 18:56 UTC
Wind
  • 150° at 11 KTS
Visibility
10 SM
Flight Rules
VFR
Cloud Levels
  • Few at 1,500' AGL
  • Scattered at 2,500' AGL
  • Broken at 4,800' AGL
  • Broken at 15,000' AGL
Temperature
C / 45°F
Dewpoint
C / 34°F
Humidity
66%
Previous

3 hours ago

KNUW 231756Z 12013KT 10SM SCT015 BKN045 BKN120 06/02 A3013 RMK SLP202 T00560017 10056 20039 50007
Observed
Feb-23 @ 17:56 UTC
Wind
  • 120° at 13 KTS
Visibility
10 SM
Flight Rules
VFR
Cloud Levels
  • Scattered at 1,500' AGL
  • Broken at 4,500' AGL
  • Broken at 12,000' AGL
Temperature
C / 43°F
Dewpoint
C / 36°F
Humidity
76%
Altimeter
30.13" Hg
Pressure
1020.2 hPa